Alev Kaman — TCCN5 — position and weather

sailwx.info

Track history (hours):
 
Tides and Currents Weather Stations Pressure Air Temp Water Temp Dewpoint Dewpoint Depression Visibility Wind Speed Wind Dir Waves Ship Positions

Alev Kaman

Last reported at 2014-Dec-20 14:33 UTC. Time now 2014-Dec-22 01:25 UTC.
Position N 40°46' E 029°40'.

Length 93 m; draft 6 m.

Type: Tanker. MMSI: 271000716.

Date/timePositionNaut miles runAvg speedWind from/ knotsBaromVisibWave heightAir tempDewpointWater temp
2014-Dec-20 14:33N 40°46' E 029°40'5 0.4
2014-Dec-20 01:12N 40°46' E 029°33'3 4.6
2014-Dec-20 00:34N 40°46' E 029°37'0 0.0
2014-Dec-19 05:07N 40°46' E 029°37'0 0.1
2014-Dec-19 04:25N 40°46' E 029°37'0 0.0
2014-Dec-19 02:07N 40°46' E 029°37'4 2.7
2014-Dec-19 00:33N 40°45' E 029°32'10 9.8
2014-Dec-18 23:33N 40°44' E 029°19'1010.1
2014-Dec-18 22:33N 40°46' E 029°06'10 9.9
2014-Dec-18 21:31N 40°48' E 028°52'13 9.5
2014-Dec-18 20:09N 40°52' E 028°36'  
2014-Dec-16 07:23N 40°55' E 028°32'8 9.5
2014-Dec-16 06:32N 40°54' E 028°42'  
Track history (hours):
 
Tides and Currents Weather Stations Pressure Air Temp Water Temp Dewpoint Dewpoint Depression Visibility Wind Speed Wind Dir Waves Ship Positions

Alev Kaman

Last reported at 2014-Dec-20 14:33 UTC. Time now 2014-Dec-22 01:25 UTC.
Position N 40°46' E 029°40'.

Length 93 m; draft 6 m.

Type: Tanker. MMSI: 271000716.

Date/timePositionNaut miles runAvg speedWind from/ knotsBaromVisibWave heightAir tempDewpointWater temp
2014-Dec-20 14:33N 40°46' E 029°40'5 0.4
2014-Dec-20 01:12N 40°46' E 029°33'3 4.6
2014-Dec-20 00:34N 40°46' E 029°37'0 0.0
2014-Dec-19 05:07N 40°46' E 029°37'0 0.1
2014-Dec-19 04:25N 40°46' E 029°37'0 0.0
2014-Dec-19 02:07N 40°46' E 029°37'4 2.7
2014-Dec-19 00:33N 40°45' E 029°32'10 9.8
2014-Dec-18 23:33N 40°44' E 029°19'1010.1
2014-Dec-18 22:33N 40°46' E 029°06'10 9.9
2014-Dec-18 21:31N 40°48' E 028°52'13 9.5
2014-Dec-18 20:09N 40°52' E 028°36'  
2014-Dec-16 07:23N 40°55' E 028°32'8 9.5
2014-Dec-16 06:32N 40°54' E 028°42'  

Dump ship's entire track history